Preview of NWS' New Version of Forecast
This preview is not operational and should not be used for support decisions.
Latest weather observations around

Wanoga Butte (HWY 372 MP 17) (ODT31)

Using English Units (Switch to International System of Units)
Date/ Time (PST) Wind (mph) Vis. (mi) Weather Sky Cond. Temp (°F) Rel. Humidity Wind Chill (°F) Heat Index (°F) Pressure Precip. (in)
Air Dwpt 6 hour Altimeter (inHg) Sea level (inHg) 1 hr 3 hr 6 hr
Max Min
Dec 17 11:30 W 12   Clear   30 28     93% 20            
Dec 17 11:10 W 11   Clear   30 28     92% 21            
Dec 17 11:00 W 13   Clear   30 28     93% 20            
Dec 17 10:30 SW 6   Clear   30 29     97% 24            
Dec 17 10:10 SW 3   Clear   29 29     98%              
Dec 17 10:00 W 5   Clear   29 29     97% 24            
Dec 17 09:40 W 9   Clear   29 28     97% 21            
Dec 17 09:30 W 8   Clear   29 28     96% 22            
Dec 17 09:10 W 9   Clear   28 28     97% 20            
Dec 17 08:40 W 8   Clear   28 28     98% 20            
Dec 17 08:30 W 9   Clear   27 27     98% 19            
Dec 17 08:10 W 6   Clear   27 27     99% 21            
Dec 17 08:00 W 7   Clear   27 27     99% 20            
Dec 17 07:40 W 7   Clear   27 27     99% 20            
Dec 17 07:30 W 4   Clear   27 27     99% 23            
Dec 17 07:10 W 6   Clear   27 27     99% 21            
Dec 17 07:00 W 6   Clear   27 27     99% 21            
Dec 17 06:40 SW 7   Clear   27 27     99% 19            
Dec 17 06:30 W 7   Clear   27 27     99% 19            
Dec 17 06:10 W 8   Clear   27 27     99% 19            
Dec 17 05:40 W 8   Clear   28 26     94% 20            
Dec 17 05:30 W 6   Clear   28 26     93% 21            
Dec 17 05:10 W 6   Clear   28 25     88% 22            
Dec 17 05:00 W 7   Clear   28 25     87% 21            
Dec 17 04:30 W 8   Clear   28 25     88% 20            
Dec 17 04:10 W 4   Clear   28 26     91% 23            
Dec 17 04:00 W 6   Clear   28 26     91% 21            
Dec 17 03:40 SW 4   Clear   28 26     91% 23            
Dec 17 03:30 W 7   Clear   28 25     89% 21            
Dec 17 03:10 W 6   Clear   28 27     94% 22            
Dec 17 02:40 W 10   Clear   29 26     89% 20            
Dec 17 02:30 W 9   Clear   29 27     92% 21            
Dec 17 02:10 W 10   Clear   29 28     94% 20            
Dec 17 01:40 W 12   Clear   30 28     94% 20            
Dec 17 01:30 W 9   Clear   29 28     96% 21            
Dec 17 01:10 W 10   Clear   30 29     98% 21            
Dec 17 01:00 W 9   Clear   30 30     99% 22            
Dec 17 00:30 W 9   Clear   30 30     99% 22            
Dec 17 00:10 W 8   Clear   30 30     99% 22            
Dec 17 00:00 W 8   Clear   30 30     99% 23            
Dec 16 23:40 W 8   Clear   31 30     99% 23            
Dec 16 23:30 W 7   Clear   31 31     99% 24            
Dec 16 23:10 W 9   Clear   31 31     99% 23            
Dec 16 22:40 W 8   Clear   31 31     99% 24            
Dec 16 22:30 W 8   Clear   31 31     99% 24            
Dec 16 22:10 W 7   Clear   31 31     99% 25            
Dec 16 22:00 W 8   Clear   32 31     99% 24            
Dec 16 21:40 W 7   Clear   31 31     99% 25            
Dec 16 21:30 W 8   Clear   31 31     99% 24            
Dec 16 21:00 W 8   Clear   32 31     99% 24            
Dec 16 20:40 W 8   Clear   32 31     99% 24            
Notice The following observation data may not be complete
Dec 16 20:30 W 8   Clear            %              
Dec 16 20:10 W 9   Clear   32 32     99% 25            
Dec 16 19:40 W 9   Clear   33 32     99% 25            
Dec 16 19:30 W 10   Clear   33 32     99% 24            
Dec 16 19:10 W 7   Clear   33 33     99% 27            
Dec 16 19:00 W 7   Clear   33 33     99% 27            
Dec 16 18:40 W 8   Clear   33 33     99% 26            
Dec 16 18:10 W 8   Clear   33 33     99% 26            
Dec 16 18:00 W 8   Clear   33 33     99% 27            
Dec 16 17:40 W 9   Clear   34 33     99% 26            
Dec 16 17:30 W 8   Clear   34 33     99% 27            
Dec 16 17:10 W 11   Clear   34 34     99% 26            
Dec 16 16:40 W 9   Clear   35 34     99% 27            
Dec 16 16:30 W 9   Clear   34 34     99% 27            
Dec 16 16:10 W 9   Clear   35 34     99% 27            
Dec 16 16:00 SW 12   Clear   35 34     99% 26            
Dec 16 15:30 SW 15   Clear   35 35     99% 25            
Dec 16 15:10     Clear   35 35     99%              
Dec 16 15:00 SW 17   Clear   35 35     99% 25            
Dec 16 14:40     Clear   35 35     99%              
Dec 16 14:30 W 14   Clear   35 35     99% 26            
Dec 16 14:00 SW 9   Clear   36 36     99% 29            
Dec 16 13:40 SW 11   Clear   36 36     99% 28            
Dec 16 13:30 SW 12   Clear   36 36     99% 28            
Dec 16 13:10 SW 10   Clear   36 36     99% 28            
Dec 16 13:00 W 11   Clear   36 36     99% 28            
Dec 16 12:40 W 8   Clear   36 36     99% 29            
Dec 16 12:30 W 11   Clear   36 36     99% 28            
Dec 16 12:10 W 13   Clear   36 35     99% 27            
Dec 16 11:40 W 9   Clear   35 35     99% 28            
Dec 16 11:30 W 9   Clear   35 35     99% 28            
Dec 16 11:10 W 15   Clear   35 35     99% 26            
Dec 16 11:00 W 15   Clear   35 35     99% 26            
Dec 16 10:40 W 12   Clear   35 34     99% 26            
Dec 16 10:10 SW 14   Clear   35 34     99% 25            
Dec 16 10:00 W 15   Clear   35 34     99% 25            
Dec 16 09:40 W 11   Clear   34 33     99% 25            
Dec 16 09:30 W 11   Clear   34 33     99% 25            
Dec 16 09:10 W 15   Clear   34 33     99% 24            
Dec 16 09:00 W 12   Clear   34 33     99% 25            
Dec 16 08:30 W 16   Clear   34 33     99% 23            
Dec 16 08:10 W 13   Clear   34 33     99% 24            
Dec 16 08:00 W 14   Clear   34 33     99% 24            
Dec 16 07:40 W 13   Clear   33 33     99% 24            
Dec 16 07:30 W 13   Clear   33 33     99% 24            
Dec 16 07:10 W 11   Clear   33 33     99% 25            
Dec 16 07:00 W 14   Clear   34 33     99% 24            
Dec 16 06:40 W 14   Clear   33 33     99% 24            
Dec 16 06:30 W 11   Clear   33 33     99% 25            
Dec 16 06:00 W 13   Clear   34 33     99% 24            
Dec 16 05:40 W 11   Clear   34 33     99% 25            
Dec 16 05:30 W 12   Clear   34 33     99% 25            
Dec 16 05:10 SW 10   Clear   34 33     99% 26            
Dec 16 05:00 W 11   Clear   34 33     99% 25            
Dec 16 04:30 W 11   Clear   34 34     99% 26            
Dec 16 04:10 W 16   Clear   34 34     99% 24            
Dec 16 04:00 W 13   Clear   34 34     99% 25            
Dec 16 03:40 W 16   Clear   34 34     99% 24            
Dec 16 03:30 W 11   Clear   34 34     99% 26            
Dec 16 03:00 W 15   Clear   34 34     99% 24            
Dec 16 02:40 W 12   Clear   34 34     99% 25            
Dec 16 02:30 W 13   Clear   34 34     99% 25            
Dec 16 02:10 W 13   Clear   34 34     99% 25            
Dec 16 02:00 W 10   Clear   34 33     99% 26            
Dec 16 01:30 W 11   Clear   34 33     99% 25            
Dec 16 01:10 W 12   Clear   34 34     99% 25            
Dec 16 01:00 W 13   Clear   34 34     99% 25            
Dec 16 00:40 W 14   Clear   34 34     99% 24            
Dec 16 00:30 W 12   Clear   34 34     99% 25            
Dec 16 00:00 W 14   Clear   34 34     99% 25            
Dec 15 23:40 W 13   Clear   34 34     99% 25            
Dec 15 23:30 W 13   Clear   34 34     99% 25            
Dec 15 23:10 W 12   Clear   34 34     99% 25            
Dec 15 22:40 W 15   Clear   34 33     99% 24            
Dec 15 22:30 W 14   Clear   34 33     99% 24            
Dec 15 22:10 W 13   Clear   33 33     99% 24            
Dec 15 22:00 W 11   Clear   33 33     99% 25            
Dec 15 21:30 W 14   Clear   33 33     99% 24            
Dec 15 21:10 W 13   Clear   33 32     99% 23            
Dec 15 21:00 W 12   Clear   33 32     99% 23            
Dec 15 20:40 W 13   Clear   33 32     99% 23            
Dec 15 20:30 W 12   Clear   32 32     99% 23            
Notice The following observation data may not be complete
Dec 15 20:00 W 11   Clear            %              
Dec 15 19:40 W 10   Clear   32 32     99% 23            
Dec 15 19:30 W 12   Clear   32 32     99% 23            
Dec 15 19:10 W 11   Clear   32 31     99% 23            
Dec 15 19:00 W 11   Clear   31 31     99% 22            
Dec 15 18:30 W 12   Clear   31 31     98% 22            
Dec 15 18:10 W 12   Clear   31 30     98% 21            
Dec 15 18:00 W 12   Clear   31 30     98% 21            
Dec 15 17:40 W 14   Clear   30 29     97% 20            
Dec 15 17:30 W 12   Clear   30 29     97% 20            
Dec 15 17:00 W 12   Clear   30 28     93% 20            
Dec 15 16:40 W 12   Clear   30 27     90% 20            
Dec 15 16:30 W 9   Clear   29 26     88% 21            
Dec 15 16:10 W 9   Clear   29 25     84% 21            
Dec 15 16:00 W 10   Clear   29 24     82% 20            
Dec 15 15:30 W 9   Clear   28 24     84% 20            
Dec 15 15:10 W 8   Clear   29 24     82% 21            
Dec 15 15:00 W 9   Clear   29 24     82% 20            
Dec 15 14:40 W 9   Clear   29 24     82% 20            
Dec 15 14:30 W 8   Clear   28 23     82% 20            
Dec 15 14:10 W 9   Clear   28 23     82% 20            
Dec 15 13:40 W 10   Clear   29 22     77% 19            
Dec 15 13:30 W 10   Clear   29 22     76% 20            
Dec 15 13:10 W 11   Clear   29 21     73% 19            
Dec 15 13:00 W 10   Clear   28 21     74% 19            
Dec 15 12:30 W 7   Clear   27 21     76% 20            
Dec 15 12:10 W 11   Clear   28 18     67% 18            
Dec 15 12:00 W 10   Clear   28 19     68% 19            
Dec 15 11:40 W 11   Clear   27 21     78% 17            
Dec 15 11:10 W 12   Clear   26 21     80% 15            
Dec 15 11:00 W 13   Clear   26 20     79% 15            
Dec 15 10:40 W 12   Clear   26 21     79% 16            
Dec 15 10:30 W 10   Clear   26 22     86% 16            
Dec 15 10:00 W 9   Clear   25 23     93% 15            
Dec 15 09:40 W 9   Clear   24 23     95% 14            
Dec 15 09:30 W 9   Clear   24 23     96% 14            
Dec 15 09:10 W 8   Clear   24 23     96% 15            
Dec 15 09:00 W 9   Clear   24 23     97% 14            
Dec 15 08:30 W 7   Clear   23 23     97% 15            
Dec 15 08:10 W 5   Clear   23 22     98% 16            
Dec 15 08:00 W 3   Clear   23 22     99%              
Dec 15 07:40 W 4   Clear   22 22     98% 17            
Dec 15 07:30 W 4   Clear   22 22     98% 17            
Dec 15 07:00 W 5   Clear   22 21     95% 16            
Dec 15 06:40 W 4   Clear   23 21     92% 17            
Dec 15 06:30 W 4   Clear   24 21     90% 18            
Dec 15 06:10 SW 3   Clear   24 21     90%              
Dec 15 06:00 W 6   Clear   24 21     88% 17            
Dec 15 05:30 W 6   Clear   23 21     92% 16            
Dec 15 05:10 W 8   Clear   23 21     93% 14            
Dec 15 05:00 W 8   Clear   23 21     93% 14            
Dec 15 04:40 W 11   Clear   23 21     93% 12            
Dec 15 04:30 W 10   Clear   23 21     91% 13            
Dec 15 04:00 W 14   Clear   24 21     89% 11            
Dec 15 03:40     Clear   23 21     90%              
Dec 15 03:30     Clear   23 21     90%              
Dec 15 03:10     Clear   24 21     88%              
Dec 15 03:00 W 14   Clear   23 20     88% 11            
Dec 15 02:30     Clear   23 19     86%              
Dec 15 02:10 W 15   Clear   22 19     88% 9            
Dec 15 02:00     Clear   22 19     87%              
Dec 15 01:40 W 15   Clear   21 19     92% 7            
Dec 15 01:30 W 13   Clear   20 18     94% 7            
Dec 15 01:10 W 12   Clear   20 18     92% 7            
Dec 15 01:00 W 10   Clear   20 17     89% 8            
Dec 15 00:30 W 12   Clear   20 17     88% 8            
Dec 15 00:10 W 9   Clear   20 17     87% 10            
Dec 15 00:00 W 10   Clear   20 17     86% 9            
Dec 14 23:40 W 8   Clear   21 18     89% 11            
Dec 14 23:30 W 9   Clear   22 20     92% 12            
Dec 14 23:10 W 15   Clear   23 19     87% 10            
Dec 14 23:00 W 12   Clear   23 19     85% 12            
Dec 14 22:30 W 9   Clear   24 22     92% 14            
Dec 14 22:10 W 11   Clear   24 21     87% 13            
Dec 14 22:00 W 16   Clear   24 21     86% 11            
Dec 14 21:40 W 14   Clear   24 21     87% 12            
Dec 14 21:30 W 17   Clear   25 21     84% 12            
Dec 14 21:10 W 13   Clear   25 21     84% 13            
Dec 14 21:00 W 20   Clear and Windy   25 22     87% 11            
Dec 14 20:30     Clear   26 23     87%              
Dec 14 20:10 W 19   Clear   26 23     89% 13            
Dec 14 20:00 W 14   Clear   26 25     94% 14            
Dec 14 19:40 W 15   Clear   26 25     93% 14            
Dec 14 19:30 W 14   Clear   26 25     94% 15            
Dec 14 19:10 W 14   Clear   27 25     92% 15            
Dec 14 18:40 W 14   Clear   27 25     94% 15            
Dec 14 18:30     Clear   27 24     89%              
Dec 14 18:10     Clear   27 25     90%              
Dec 14 18:00 W 16   Clear   27 26     97% 15            
Dec 14 17:40     Clear   27 26     97%              
Dec 14 17:10 W 14   Clear   28 25     89% 17            
Dec 14 17:00 W 13   Clear   28 26     93% 17            
Dec 14 16:40 W 15   Clear   28 26     91% 16            
Dec 14 16:30     Clear   28 25     88%              
Dec 14 16:10     Clear   29 25     87%              
Dec 14 15:40 W 15   Clear   30 28     93% 19            
Dec 14 15:30 W 14   Clear   30 28     94% 19            
Dec 14 15:10 W 16   Clear   30 30     98% 19            
Dec 14 14:40 W 14   Clear   35 25     66% 26            
Dec 14 14:30 W 16   Clear   36 23     58% 27            
Dec 14 14:10     Clear   37 21     52%              
Dec 14 14:00 W 18   Clear   38 21     50% 28            
Dec 14 13:40     Clear   38 20     47%              
Dec 14 13:30 W 25   Clear and Windy   38 20     47% 27            
Dec 14 13:00 W 23   Clear and Windy   39 19     44% 28            
Dec 14 12:40     Clear   40 20     43%              
Dec 14 12:30 W 14   Clear   40 20     44% 32            
Dec 14 12:10 SW 16   Clear   37 20     48% 28            
Dec 14 12:00     Clear   38 19     47%              
Dec 14 11:40     Clear   37 19     47%              
Dec 14 11:10 W 17   Clear   36 19     48% 27            
Dec 14 11:00 W 14   Clear   36 19     48% 28            
Dec 14 10:40 W 16   Clear   35 19     53% 24            
Dec 14 10:30 W 15   Clear   33 18     54% 23            
Dec 14 10:00 W 13   Clear   33 18     54% 24            
Dec 14 09:40 SW 11   Clear   32 18     55% 24            
Dec 14 09:30 W 13   Clear   33 18     54% 23            
Dec 14 09:10 W 12   Clear   32 18     56% 23            
Notice The following observation data may not be complete
Dec 14 09:00 W 12   Clear            %              
Dec 14 08:40 W 9   Clear   32 19     58% 24            
Notice The following observation data may not be complete
Dec 14 08:10 W 14   Clear            %              
Notice The following observation data may not be complete
Dec 14 08:00 W 11   Clear            %              
Dec 14 07:40 W 12   Clear   31 19     61% 22            
Dec 14 07:30 W 11   Clear   31 20     62% 22            
Dec 14 07:10 W 11   Clear   31 20     61% 23            
Notice The following observation data may not be complete
Dec 14 06:40 W 14   Clear            %              
Dec 14 06:30 W 10   Clear   31 21     66% 22            
Dec 14 06:10 W 9   Clear   30 21     68% 22            
Dec 14 06:00 W 11   Clear   30 21     67% 21            
Dec 14 05:40 W 9   Clear   31 21     67% 23            
Dec 14 05:30 W 9   Clear   31 21     65% 23            
Dec 14 05:10 W 12   Clear   32 20     62% 22            
Dec 14 05:00 W 10   Clear   31 21     64% 23            
Dec 14 04:40 W 12   Clear   32 20     61% 22            
Dec 14 04:10 W 11   Clear   32 19     58% 24            
Dec 14 04:00 W 11   Clear   32 19     58% 24            
Dec 14 03:40 W 12   Clear   31 20     62% 22            
Dec 14 03:30 W 11   Clear   31 20     61% 23            
Dec 14 03:00 W 13   Clear   32 19     60% 22            
Dec 14 02:40 W 12   Clear   32 19     60% 22            
Notice The following observation data may not be complete
Dec 14 02:30 W 12   Clear            %              
Dec 14 02:00 W 12   Clear   32 18     56% 23            
Dec 14 01:40 W 12   Clear   32 18     57% 23            
Dec 14 01:30 W 9   Clear   32 19     58% 24            
Dec 14 01:10 W 11   Clear   32 18     56% 23            
Dec 14 01:00 W 11   Clear   32 18     55% 23            
Dec 14 00:40 W 10   Clear   31 18     57% 23            
Dec 14 00:30 W 11   Clear   31 18     56% 23            
Dec 14 00:00 W 11   Clear   31 18     58% 22            
Dec 13 23:30 W 12   Clear   32 17     53% 23            
Notice The following observation data may not be complete
Dec 13 23:00 W 11   Clear            %              
Dec 13 22:40 W 11   Clear   31 18     58% 22            
Dec 13 22:30 W 11   Clear   31 19     60% 22            
Dec 13 22:00 W 10   Clear   30 19     62% 22            
Dec 13 21:40 W 11   Clear   30 19     62% 21            
Dec 13 21:30 W 10   Clear   31 19     61% 22            
Dec 13 21:10 W 11   Clear   31 19     60% 22            
Dec 13 21:00 W 11   Clear   31 18     59% 22            
Dec 13 20:40 W 12   Clear   31 18     58% 22            
Dec 13 20:10 W 12   Clear   31 17     56% 22            
Dec 13 20:00 W 11   Clear   32 17     54% 23            
Notice The following observation data may not be complete
Dec 13 19:40 W 12   Clear            %              
Dec 13 19:30 W 12   Clear   32 17     54% 22            
Dec 13 19:10 W 12   Clear   31 17     55% 22            
Dec 13 19:00 W 14   Clear   31 17     55% 21            
Dec 13 18:30 W 12   Clear   31 17     56% 22            
Dec 13 18:10 W 10   Clear   31 18     59% 22            
Dec 13 18:00 W 9   Clear   31 18     59% 23            
Dec 13 17:30 W 9   Clear   31 18     59% 23            
Dec 13 17:10 W 9   Clear   31 18     57% 24            
Notice The following observation data may not be complete
Dec 13 17:00 W 11   Clear            %              
Dec 13 16:30 W 11   Clear   32 20     60% 24            
Dec 13 16:10 W 9   Clear   32 22     66% 25            
Dec 13 16:00 W 8   Clear   32 23     67% 25            
Dec 13 15:50 W 9   Clear   33 23     66% 26            
Dec 13 15:20 SW 11   Clear   34 24     66% 26            
Dec 13 15:10 W 9   Clear   35 25     68% 28            
Dec 13 14:50 W 9   Clear   35 23     62% 27            
Dec 13 14:40 SW 11   Clear   35 23     62% 27            
Dec 13 14:20 W 7   Clear   35 24     65% 29            
Dec 13 13:50 W 8   Clear   35 24     63% 28            
Dec 13 13:30 W 7   Clear   35 24     62% 29            
Dec 13 13:20 W 8   Clear   35 23     62% 28            
Dec 13 13:00 W 6   Clear   35 24     63% 30            
Dec 13 12:50 W 10   Clear   34 24     65% 27            
Dec 13 12:30 W 8   Clear   34 24     66% 27            
Dec 13 12:10 SW 9   Clear   33 23     67% 25            
Dec 13 12:00 W 11   Clear   33 24     69% 24            
Dec 13 11:40 SW 9   Clear   31 24     74% 24            
Dec 13 11:30 SW 8   Clear   31 24     76% 23            
Dec 13 11:00 SW 7   Clear   30 23     74% 24            
Dec 13 10:41 SW 9   Clear   29 22     75% 21            
Dec 13 10:30 W 6   Clear   29 22     76% 22            
Dec 13 10:10 SW 6   Clear   27 22     80% 21            
Dec 13 10:00 W 6   Clear   27 22     82% 20            
Dec 13 09:30 W 7   Clear   25 21     86% 17            
Dec 13 09:10 W 8   Clear   24 21     88% 15            
Dec 13 08:40 W 7   Clear   22 20     92% 14            
Dec 13 08:30 W 6   Clear   22 20     92% 15            
Dec 13 08:10 W 8   Clear   23 20     89% 14            
Dec 13 08:00 W 10   Clear   24 20     86% 14            
Dec 13 07:40 W 9   Clear   24 21     87% 15            
Dec 13 07:30 W 9   Clear   24 20     84% 15            
Dec 13 07:00 W 9   Clear   26 21     81% 17            
Dec 13 06:40 W 10   Clear   27 20     72% 18            
Dec 13 06:30 W 8   Clear   27 20     74% 19            
Dec 13 06:10 W 7   Clear   28 20     73% 21            
Dec 13 05:40 W 7   Clear   27 21     77% 20            
Dec 13 05:30 W 8   Clear   28 21     73% 20            
Dec 13 05:10 W 9   Clear   30 19     64% 21            
Dec 13 05:00 W 9   Clear   29 19     66% 21            
Dec 13 04:30 W 9   Clear   29 21     71% 21            
Dec 13 04:10 W 9   Clear   29 21     71% 21            
Dec 13 04:00 W 8   Clear   29 22     74% 21            
Dec 13 03:40 W 9   Clear   28 23     79% 20            
Dec 13 03:10 W 12   Clear   28 23     81% 18            
Dec 13 03:00 W 14   Clear   28 23     82% 17            
Dec 13 02:40 W 12   Clear   27 24     88% 17            
Dec 13 02:30 W 12   Clear   27 24     89% 16            
Dec 13 02:10 W 12   Clear   27 24     88% 17            
Dec 13 02:00 W 11   Clear   27 24     88% 17            
Dec 13 01:30 W 12   Clear   28 24     85% 18            
Dec 13 01:10 W 10   Clear   28 24     85% 19            
Dec 13 01:00 W 9   Clear   29 23     79% 20            
Dec 13 00:40 W 14   Clear   31 21     68% 20            
Dec 13 00:30 W 14   Clear   29 23     76% 19            
Dec 13 00:10 NW 17   Clear   28 24     82% 16            
Dec 13 00:00 W 18   Clear   28 24     82% 16            
Dec 12 23:40 W 19   Clear   28 24     82% 16            
Dec 12 23:30 W 15   Clear   27 23     85% 16            
Dec 12 23:10 W 16   Clear   27 23     87% 14            
Dec 12 23:00 W 12   Clear   27 23     86% 16            
Dec 12 22:40 W 9   Clear   27 22     80% 18            
Dec 12 22:10 W 9   Clear   26 21     80% 17            
Dec 12 22:00 W 8   Clear   26 22     82% 18            
Dec 12 21:40 W 9   Clear   26 22     82% 17            
Dec 12 21:30 W 9   Clear   27 21     79% 18            
Dec 12 21:00 W 10   Clear   27 21     79% 17            
Dec 12 20:40 W 8   Clear   26 22     87% 17            
Dec 12 20:30 SW 6   Clear   25 23     90% 18            
Dec 12 20:10 S 3   Clear   24 23     94%              
Dec 12 20:00 SW 3   Clear   24 23     97%              
Dec 12 19:30 S 3   Clear   25 24     96%              
Dec 12 19:10     Clear   25 24     97%              
Dec 12 19:00 W 2   Clear   25 24     96%              
Dec 12 18:30 W 5   Clear   24 24     97% 18            
Dec 12 18:10 W 6   Clear   24 24     97% 17            
Dec 12 18:00 W 8   Clear   25 24     97% 16            
Dec 12 17:40 W 7   Clear   24 24     97% 16            
Dec 12 17:30 W 8   Clear   24 24     97% 16            
Dec 12 17:10 W 9   Clear   25 24     96% 15            
Dec 12 17:00 W 9   Clear   25 24     96% 15            
Dec 12 16:40 W 6   Clear   25 23     95% 17            
Dec 12 16:10 W 5   Clear   25 24     95% 19            
Dec 12 16:00 W 4   Clear   26 24     95% 21            
Dec 12 15:40 W 8   Clear   26 24     94% 17            
Dec 12 15:30 W 8   Clear   26 24     94% 17            
Dec 12 15:10 W 8   Clear   26 24     93% 17            
Dec 12 15:00 W 8   Clear   26 25     95% 17            
Dec 12 14:30 W 8   Clear   26 24     94% 17            
Dec 12 14:10 W 8   Clear   26 24     94% 17            
Dec 12 14:00 SW 8   Clear   26 24     93% 17            
Dec 12 13:40 W 9   Clear   26 23     91% 17            
Dec 12 13:10 W 11   Clear   26 22     82% 16            
Dec 12 13:00 W 10   Clear   27 22     84% 17            
Dec 12 12:40 W 12   Clear   26 19     74% 15            
Dec 12 12:30 W 8   Clear   26 20     79% 18            
Dec 12 12:10 W 9   Clear   25 21     83% 16            
Dec 12 12:00 W 8   Clear   26 21     82% 17            
Dec 12 11:30 W 5   Clear   26 23     86% 20            
Dec 12 11:10 SW 4   Clear   26 21     83% 21            
Dec 12 11:00 W 12   Clear   25 20     83% 14            
Dec 12 10:40 W 12   Clear   24 20     84% 13            
Dec 12 10:30 W 1   Clear   25 22     89%              
Dec 12 10:00 W 3   Clear   23 21     92%              
Dec 12 09:40 NW 4   Clear   23 20     89% 18            
Dec 12 09:30 W 8   Clear   23 20     90% 13            
Dec 12 09:10 W 11   Clear   22 20     92% 11            
Dec 12 09:00 W 11   Clear   22 20     92% 11            
Dec 12 08:30 S 4   Clear   23 21     91% 18            
Dec 12 08:10 S 4   Clear   22 20     92% 16            
Dec 12 07:40 SE 4   Clear   23 21     94% 17            
Dec 12 07:10 E 3   Clear   23 22     96%              
Dec 12 07:00 SE 3   Clear   23 22     96%              
Dec 12 06:40 N 7   Clear   23 22     96% 15            
Dec 12 06:30 NW 6   Clear   23 22     96% 16            
Dec 12 06:00 W 8   Clear   23 22     95% 14            
Dec 12 05:40 NW 8   Clear   24 22     95% 15            
Dec 12 05:30 NW 6   Clear   23 22     96% 16            
Dec 12 05:10 W 15   Clear   24 23     96% 11            
Dec 12 05:00 NW 12   Clear   23 22     96% 12            
Dec 12 04:30 NW 14   Clear   23 22     96% 10            
Dec 12 04:10 W 14   Clear   23 22     95% 10            
Dec 12 04:00 W 15   Clear   23 22     95% 10            
Dec 12 03:30 W 12   Clear   23 22     96% 12            
Dec 12 03:10 W 9   Clear   24 23     96% 14            
Dec 12 03:00 NW 9   Clear   24 23     96% 15            
Dec 12 02:40 NW 14   Clear   24 23     96% 12            
Dec 12 02:30 NW 17   Clear   24 23     96% 11            
Dec 12 02:00 NW 16   Clear   25 24     97% 12            
Dec 12 01:40 W 12   Clear   25 24     97% 14            
Dec 12 01:30 W 10   Clear   25 24     97% 15            
Dec 12 01:10 W 14   Clear   25 25     97% 13            
Dec 12 01:00 W 13   Clear   25 24     97% 14            
Dec 12 00:40 W 14   Clear   25 25     97% 13            
Dec 12 00:30 NW 20   Clear and Windy   25 25     97% 11            
Dec 12 00:00     Clear   26 26     98%              
Dec 11 23:40 W 10   Clear   26 26     98% 17            
Dec 11 23:30 W 15   Clear   26 26     98% 14            
Dec 11 23:00 W 15   Clear   27 26     98% 15            
Dec 11 22:40 W 12   Clear   27 26     98% 16            
Dec 11 22:30     Clear   27 26     98%              
Dec 11 22:10 NW 16   Clear   27 27     98% 15            
Dec 11 21:40 NW 17   Clear   29 28     99% 16            
Dec 11 21:30 NW 13   Clear   29 29     99% 19            
Dec 11 21:10 W 16   Clear   30 30     99% 18            
Dec 11 21:00 NW 13   Clear   30 30     99% 20            
Dec 11 20:30 W 16   Clear   31 31     99% 21            
Notice The following observation data may not be complete
Dec 11 20:10 W 12   Clear            %              
Dec 11 20:00 W 12   Clear   32 32     99% 23            
Dec 11 19:30 W 16   Clear   32 32     99% 21            
Dec 11 19:10 W 15   Clear   32 32     99% 22            
Dec 11 19:00 W 14   Clear   32 32     99% 22            
Dec 11 18:40 W 14   Clear   32 32     99% 22            
Dec 11 18:30 W 14   Clear   33 32     99% 23            
Dec 11 18:10 W 17   Clear   33 32     99% 22            
Dec 11 17:40 W 17   Clear   33 33     99% 22            
Dec 11 17:30 W 16   Clear   33 33     99% 23            
Dec 11 17:10 W 20   Clear and Windy   34 34     97% 23            
Dec 11 17:00 W 19   Clear   34 34     98% 23            
Dec 11 16:30 W 19   Clear   34 34     99% 23            
Dec 11 16:10     Clear   34 34     99%              
Dec 11 16:00     Clear   34 34     99%              
Dec 11 15:40     Clear   34 34     99%              
Dec 11 15:20     Clear   34 34     99%              
Dec 11 15:00     Clear   34 34     99%              
Dec 11 14:50     Clear   34 33     99%              
Dec 11 14:30     Clear   34 33     99%              
Dec 11 14:20 W 19   Clear   34 33     99% 22            
Dec 11 13:50     Clear   32 32     99%              
Dec 11 13:30     Clear   31 31     99%              
Dec 11 13:20     Clear   29 29     99%              
Dec 11 13:00     Clear   29 28     98%              
Dec 11 12:50     Clear   29 28     98%              
Dec 11 12:20 SW 3   Clear   29 29     98%              
Dec 11 12:00 W 3   Clear   29 29     98%              
Dec 11 11:50 SW 4   Clear   29 28     98% 24            
Dec 11 11:30 SW 3   Clear   28 28     98%              
Dec 11 11:20 SW 4   Clear   28 28     98% 23            
Dec 11 10:50 W 9   Clear   28 28     98% 20            
Dec 11 10:40 W 9   Clear   28 28     98% 20            
Dec 11 10:20 SW 9   Clear   27 27     98% 18            
Dec 11 10:10 W 9   Clear   27 26     98% 18            
Dec 11 09:50 W 8   Clear   27 27     98% 19            
Dec 11 09:40 SW 6   Clear   28 27     98% 21            
Dec 11 09:20 W 6   Clear   28 27     98% 21            
Dec 11 09:10 W 4   Clear   28 27     98% 23            
Dec 11 08:40 W 4   Clear   28 28     99% 24            
Dec 11 08:20 W 7   Clear   29 29     99% 23            
Dec 11 08:10 W 6   Clear   29 29     99% 23            
Dec 11 07:50 W 9   Clear   29 28     99% 20            
Dec 11 07:20 W 13   Clear   27 26     98% 16            
Dec 11 07:10 W 14   Clear   27 26     98% 15            
Dec 11 06:50 W 13   Clear   26 25     98% 14            
Dec 11 06:40 W 13   Clear   24 24     98% 13            
Dec 11 06:10 W 13   Clear   25 23     93% 14            
Dec 11 05:50 W 15   Clear   25 22     86% 13            
Dec 11 05:40 W 15   Clear   26 22     82% 14            
Dec 11 05:10 W 16   Clear   27 21     79% 14            
Dec 11 04:50 W 14   Clear   28 20     71% 16            
Dec 11 04:40 W 15   Clear   28 19     70% 16            
Dec 11 04:20 W 16   Clear   29 18     64% 17            
Dec 11 04:10 W 16   Clear   29 18     64% 17            
Dec 11 03:40 W 13   Clear   26 19     74% 15            
Dec 11 03:20 W 14   Clear   27 18     68% 16            
Dec 10 19:50 W 6   Clear   22 21     95% 15            
Dec 10 19:40 W 6   Clear   23 22     95% 15            
Dec 10 19:10 W 6   Clear   22 21     96% 14            
Dec 10 18:50 W 4   Clear   22 21     96% 17            
Dec 10 18:40 W 4   Clear   22 21     96% 17            
Dec 10 18:20 W 5   Clear   23 22     96% 17            
Dec 10 17:50 W 3   Clear   24 23     97%              
Dec 10 17:40 W 4   Clear   24 24     97% 19            
Dec 10 17:20 SW 3   Clear   25 25     97%              
Dec 10 16:50     Clear   26 25     97%              
Dec 10 16:40 W 2   Clear   26 25     97%              
Dec 10 16:20 W 7   Clear   26 26     97% 19            
Dec 10 16:10 W 8   Clear   27 26     97% 18            
Dec 10 15:40 W 1   Clear   29 28     97%              
Dec 10 15:20 W 6   Clear   29 28     97% 22            
Dec 10 14:50 W 4   Clear   30 29     96% 26            
Dec 10 14:40 W 6   Clear   30 29     96% 23            
Dec 10 14:20 W 7   Clear   29 28     96% 22            
Dec 10 14:00 W 8   Clear   28 27     97% 20            
Dec 10 13:40 W 7   Clear   30 29     96% 23            
Dec 10 13:30 W 6   Clear   29 28     96% 23            
Dec 10 13:10 W 4   Clear   29 28     96% 25            
Dec 10 13:00 SW 6   Clear   29 28     96% 23            
Dec 10 12:30 W 8   Clear   29 28     95% 21            
Dec 10 12:10 W 7   Clear   29 28     96% 23            
Dec 10 12:00 W 1   Clear   31 31     97%              
Dec 10 11:40 W 1   Clear   31 31     97%              
Dec 10 11:20 W 5   Clear   29 28     97% 24            
Dec 10 11:10 W 8   Clear   29 28     97% 21            
Dec 10 10:40     Clear   31 30     96%              
Dec 10 10:20 W 3   Clear   30 29     96%              
Dec 10 10:10 W 3   Clear   29 28     96%              
Dec 10 09:50 W 4   Clear   28 27     96% 24            
Dec 10 09:40 W 3   Clear   29 28     96%              
Dec 10 09:10 SW 3   Clear   28 27     97%              
Dec 10 08:50 E 1   Clear   27 26     97%              
Dec 10 08:40 W 3   Clear   27 26     97%              
Dec 10 08:20 W 6   Clear   27 26     97% 20            
Dec 10 07:50 N 5   Clear   27 26     98% 21            
Dec 10 07:40 NW 4   Clear   27 26     98% 22            
Dec 10 07:20 SW 1   Clear   27 26     98%              
Dec 10 07:10 S 2   Clear   27 26     98%              
Dec 10 06:40     Clear   26 26     98%              
Dec 10 06:20 W 2   Clear   27 26     98%              
Dec 10 06:10     Clear   27 26     98%              
Dec 10 05:40 W 4   Clear   26 26     98% 22            
Dec 10 05:20 W 3   Clear   27 26     98%              
Dec 10 05:10 SW 4   Clear   27 27     98% 23            
Dec 10 04:50 W 3   Clear   27 26     98%              
Dec 10 04:40 W 4   Clear   27 27     98% 23            
Dec 10 04:20 W 4   Clear   28 27     98% 23            
Dec 10 04:10 W 3   Clear   28 28     98%              
Dec 10 03:40 W 4   Clear   28 28     99% 24            
Dec 10 03:20 W 6   Clear   29 28     99% 22            
Dec 10 03:10 W 9   Clear   28 28     99% 20            
Dec 10 02:50 W 5   Clear   27 27     98% 22            
Dec 10 02:40 W 5   Clear   28 27     98% 22            
Dec 10 02:10 W 4   Clear   28 27     98% 23            
Dec 10 01:50 W 4   Clear   28 28     98% 23            
Dec 10 01:40 W 5   Clear   28 28     98% 23            
Dec 10 01:20 W 5   Clear   28 28     99% 23            
Dec 10 01:10 W 6   Clear   28 28     99% 22            
Dec 10 00:50 W 4   Clear   29 29     99% 24            
Dec 10 00:40 W 4   Clear   29 29     99% 24            
Dec 10 00:10 W 1   Clear   29 29     99%              
Dec 09 23:50 W 3   Clear   29 29     99%              
Dec 09 23:40 NW 3   Clear   29 29     99%              
Dec 09 23:20 W 4   Clear   29 28     99% 24            
Dec 09 22:50 W 7   Clear   29 29     99% 22            
Dec 09 22:40 W 6   Clear   29 29     99% 22            
Dec 09 22:20 W 7   Clear   29 29     99% 22            
Dec 09 22:10 W 6   Clear   29 29     99% 22            
Dec 09 21:40 W 8   Clear   29 28     99% 21            
Dec 09 21:20 W 7   Clear   29 28     99% 21            
Dec 09 21:10 W 6   Clear   29 28     99% 22            
Dec 09 20:50 W 9   Clear   29 29     99% 20            
Dec 09 20:40 W 7   Clear   29 29     99% 22            
Dec 09 20:10 W 8   Clear   29 28     99% 21            
Dec 09 19:50 W 7   Clear   29 28     99% 21            
Dec 09 19:40 W 9   Clear   29 28     99% 20            
Dec 09 19:20 W 11   Clear   29 29     99% 19            
Dec 09 19:10 W 10   Clear   29 28     99% 19            
Dec 09 18:40 W 10   Clear   28 28     99% 19            
Dec 09 18:20 W 10   Clear   28 28     98% 19            
Dec 09 18:10 W 10   Clear   28 28     99% 19            
Dec 09 17:50 W 10   Clear   28 28     99% 19            
Dec 09 17:40 W 12   Clear   28 28     99% 18            
Dec 09 17:10 W 14   Clear   28 28     99% 17            
Dec 09 16:50 W 10   Clear   28 28     99% 19            
Dec 09 16:40 W 10   Clear   28 28     98% 19            
Dec 09 16:20 W 10   Clear   28 28     98% 19            
Dec 09 16:10 W 11   Clear   28 28     98% 19            
Dec 09 15:40 W 12   Clear   28 28     98% 18            
Dec 09 15:20 W 11   Clear   28 28     98% 19            
Dec 09 15:10 W 11   Clear   28 28     98% 19            
Dec 09 14:40 W 9   Clear   28 28     98% 20            
Dec 09 14:20 W 9   Clear   28 28     98% 20            
Dec 09 14:10 W 11   Clear   29 28     98% 19            
Dec 09 13:40 W 12   Clear   29 28     97% 19            
Dec 09 13:20 W 10   Clear   28 28     98% 19            
Dec 09 13:10 W 13   Clear   28 28     98% 17            
Dec 09 12:50 W 11   Clear   28 28     98% 19            
Dec 09 12:40 W 10   Clear   29 28     98% 19            
Dec 09 12:10 W 10   Clear   29 28     98% 19            
Dec 09 11:50 W 9   Clear   29 28     98% 20            
Dec 09 11:40 W 9   Clear   29 28     98% 21            
Dec 09 11:10 W 10   Clear   28 28     98% 19            
Dec 09 10:50 W 10   Clear   27 27     98% 18            
Dec 09 10:40 W 8   Clear   28 27     98% 20            
Dec 09 10:20 W 8   Clear   27 27     98% 19            
Dec 09 10:10 W 9   Clear   27 27     98% 19            
Dec 09 08:34 W 8   Clear   27 27     98% 19            
Dec 09 08:20 W 7   Clear   27 27     98% 20            
Dec 09 07:43 W 6   Clear   28 27     98% 21            
Dec 09 07:33 W 7   Clear   28 27     98% 20            
Dec 09 07:23 W 8   Clear   28 27     98% 20            
Dec 09 07:05 W 9   Clear   28 28     98% 19            
Dec 09 06:30 W 6   Clear   28 28     99% 22            
Dec 09 05:50 W 7   Clear   29 28     99% 21            
Dec 09 05:40 W 5   Clear   29 28     99% 23            
Dec 09 05:33 W 7   Clear   29 29     99% 22            
Dec 09 05:00 W 7   Clear   29 29     99% 22            
Dec 09 04:40 W 6   Clear   29 29     99% 23            
Dec 09 04:13 W 8   Clear   29 29     99% 22            
Dec 09 04:00 W 8   Clear   29 29     99% 22            
Dec 09 03:12 W 8   Clear   30 30     99% 22            
Dec 09 02:50 W 7   Clear   30 30     99% 23            
Dec 09 02:40 W 6   Clear   30 30     99% 24            
Dec 09 02:30 W 6   Clear   30 30     99% 24            
Dec 09 02:10 W 9   Clear   30 30     99% 22            
Dec 09 02:00 W 9   Clear   30 30     99% 22            
Dec 09 01:40 W 7   Clear   30 30     99% 23            
Dec 09 01:30 W 7   Clear   30 30     99% 23            
Dec 09 01:00 W 7   Clear   30 30     99% 23            
Dec 09 00:30 W 8   Clear   30 30     99% 23            
Dec 09 00:10 W 8   Clear   30 30     99% 22            
Dec 09 00:00 W 6   Clear   30 30     99% 24            
Dec 08 23:40 W 6   Clear   30 30     99% 24            
Dec 08 23:30 W 6   Clear   30 30     99% 24            
Dec 08 23:10 W 6   Clear   30 30     99% 24            
Dec 08 23:00 W 7   Clear   30 29     99% 23            
Dec 08 22:30 W 7   Clear   30 29     99% 23            
Dec 08 22:10 W 8   Clear   30 29     99% 22            
Dec 08 22:00 W 8   Clear   30 30     99% 22            
Dec 08 21:40 W 6   Clear   30 30     99% 24            
Dec 08 21:30 W 6   Clear   30 30     99% 24            
Dec 08 21:10 W 6   Clear   30 30     99% 24            
Dec 08 20:40 W 4   Clear   30 30     99% 26            
Dec 08 20:30 W 6   Clear   30 30     99% 24            
Dec 08 20:10 W 6   Clear   30 30     99% 24            
Dec 08 20:00 W 6   Clear   30 30     99% 24            
Dec 08 19:40 W 5   Clear   30 30     99% 25            
Dec 08 19:30 W 4   Clear   30 30     99% 26            
Dec 08 19:10 W 3   Clear   30 30     99%              
Dec 08 18:40 W 4   Clear   30 30     99% 26            
Dec 08 18:30 W 4   Clear   30 30     99% 26            
Dec 08 18:10 W 4   Clear   30 30     99% 26            
Dec 08 18:00 W 5   Clear   29 29     99% 24            
Dec 08 17:40 W 7   Clear   29 29     99% 22            
Dec 08 17:10 W 6   Clear   29 29     99% 22            
Dec 08 16:50 W 6   Clear   29 29     99% 23            
Dec 08 16:40 W 6   Clear   29 29     99% 23            
Dec 08 16:30 W 7   Clear   29 29     99% 22            
Dec 08 16:00 W 5   Clear   29 28     98% 23            
Dec 08 15:40 W 6   Clear   28 28     98% 22            
Dec 08 15:30 W 6   Clear   28 28     98% 22            
Dec 08 15:10 W 6   Clear   28 28     98% 21            
Dec 08 15:00 W 7   Clear   28 28     98% 21            
Dec 08 14:30 W 4   Clear   28 28     98% 23            
Dec 08 14:10 W 6   Clear   28 27     98% 21            
Dec 08 14:00 W 4   Clear   28 27     97% 23            
Dec 08 13:40 W 6   Clear   28 27     97% 21            
Dec 08 13:30 W 6   Clear   28 27     97% 21            
Dec 08 13:10 W 7   Clear   28 27     97% 20            
Dec 08 12:40 W 8   Clear   28 27     97% 20            
Dec 08 12:30 W 9   Clear   27 26     97% 18            
Dec 08 12:10 W 7   Clear   28 27     97% 21            
Dec 08 11:40 W 7   Clear   28 27     96% 21            
Dec 08 11:30 W 7   Clear   28 27     96% 21            
Dec 08 11:10 W 9   Clear   28 28     97% 20            
Dec 08 11:00 W 8   Clear   29 28     96% 21            
Dec 08 10:30 W 7   Clear   29 29     97% 23            
Dec 08 10:10 W 6   Clear   28 27     97% 21            
Dec 08 10:00 W 7   Clear   27 27     97% 20            
Dec 08 09:40 W 6   Clear   27 26     97% 20            
Dec 08 09:30 W 6   Clear   27 26     97% 20            
Dec 08 09:10 W 4   Clear   27 26     97% 22            
Dec 08 09:00 W 4   Clear   27 26     97% 22            
May 15 09:50 E 3   Clear   60        %              
Notice The following observation data may not be complete
May 15 05:50 NE 1   Clear            %              
Notice The following observation data may not be complete
May 15 05:10 E 1   Clear            %              
Notice The following observation data may not be complete
May 15 04:20 N 1   Clear            %              
Notice The following observation data may not be complete
May 15 02:50     Clear            %              
May 14 21:50 NE 4   Clear   55        %              
May 14 16:10 E 3   Clear   64        %              
May 14 09:40 NE 6   Clear   57        %              
May 14 08:50 NE 5   Clear   55        %              
May 14 00:50 NE 7   Clear   51        %              
Notice The following observation data may not be complete
May 13 23:20     Clear            %              
May 13 22:20 NE 10   Clear   53        %              
May 13 19:20 E 12   Clear   58        %              
May 13 16:50 E 13   Clear   61        %              
May 13 12:10 E 14   Clear   57        %              
May 12 21:10 NE 10   Clear   49        % 45            
Notice The following observation data may not be complete
May 12 15:40     Clear            %              
May 12 08:20     Clear   43        %              
Notice The following observation data may not be complete
May 12 04:10     Clear            %              
May 12 02:10 NE 14   Clear   40        % 32            
May 12 01:20 NE 12   Clear   41        % 35            
Notice The following observation data may not be complete
May 11 23:50     Clear            %              
May 11 23:20 NE 14   Clear   41        % 34            
May 11 21:40 NE 9   Clear   41        % 36            
May 11 12:20 NE 14   Clear   41        % 34            
Jun 12 00:00 NE 3   Clear   40 32     73%              
Jun 11 21:10 N 8   Clear   40 33     74% 35            
Jun 11 20:00 N 8   Clear   42 32     69% 37            
Jun 11 13:30 NE 11   Clear   43 28     55% 37            
Jun 11 12:40 E 12   Clear   41 30     66% 34            
Jun 11 12:10 NE 16   Clear   41 30     66% 32            
Jun 11 00:10     Clear   31 29     91%              
Jun 10 22:40     Clear   31 29     93%              
Jun 10 03:00 W 8   Clear   31 30     96% 24            
Jun 09 16:10 W 11   Clear   37 32     83% 30            
Jun 09 07:30 W 11   Clear   36 29     76% 28            
Jun 09 01:30 W 12   Clear   35 31     86% 26            
Jun 09 01:00 W 11   Clear   35 31     87% 26            
Jun 08 17:20 W 13   Clear   42 37     83% 35            
Jun 08 13:30 W 17   Clear   42 39     89% 34            
Jun 08 09:10 W 8   Clear   42 42     100% 38            
Jun 07 20:30 W 9   Clear   58 45     62%              
Jun 07 11:50 SW 11   Clear   62 43     49%              
Jun 07 06:00 NE 3   Clear   57 36     45%              
Notice The following observation data may not be complete
Jun 06 03:50     Clear            %              
Jun 06 01:10 NE 4   Clear   51 27     38%              
Notice The following observation data may not be complete
Jun 06 00:20     Clear            %              
Jun 05 20:20 NE 9   Clear   55 24     30%              
Jun 05 18:20 E 8   Clear   60 24     25%              
Jun 05 18:10 NE 8   Clear   60 24     25%              
Jun 05 12:20 NE 2   Clear   59        %              
Jun 05 12:10 SE 3   Clear   57        %